sensor_id;sensor_type;location;lat;lon;timestamp;temperature;humidity
38568;DHT22;24338;48.280;10.970;2023-05-31T00:01:45;12.70;99.90
38568;DHT22;24338;48.280;10.970;2023-05-31T00:04:12;12.60;99.90
38568;DHT22;24338;48.280;10.970;2023-05-31T00:06:39;12.60;99.90
38568;DHT22;24338;48.280;10.970;2023-05-31T00:09:06;12.60;99.90
38568;DHT22;24338;48.280;10.970;2023-05-31T00:11:33;12.60;99.90
38568;DHT22;24338;48.280;10.970;2023-05-31T00:14:00;12.50;99.90
38568;DHT22;24338;48.280;10.970;2023-05-31T00:16:27;12.50;99.90
38568;DHT22;24338;48.280;10.970;2023-05-31T00:19:14;12.50;99.90
38568;DHT22;24338;48.280;10.970;2023-05-31T00:21:43;12.40;99.90
38568;DHT22;24338;48.280;10.970;2023-05-31T00:24:12;12.40;99.90
38568;DHT22;24338;48.280;10.970;2023-05-31T00:26:39;12.40;99.90
38568;DHT22;24338;48.280;10.970;2023-05-31T00:29:06;12.40;99.90
38568;DHT22;24338;48.280;10.970;2023-05-31T00:31:33;12.30;99.90
38568;DHT22;24338;48.280;10.970;2023-05-31T00:34:00;12.30;99.90
38568;DHT22;24338;48.280;10.970;2023-05-31T00:36:27;12.30;99.90
38568;DHT22;24338;48.280;10.970;2023-05-31T00:38:54;12.20;99.90
38568;DHT22;24338;48.280;10.970;2023-05-31T00:41:21;12.20;99.90
38568;DHT22;24338;48.280;10.970;2023-05-31T00:43:49;12.20;99.90
38568;DHT22;24338;48.280;10.970;2023-05-31T00:46:37;12.20;99.90
38568;DHT22;24338;48.280;10.970;2023-05-31T00:49:05;12.20;99.90
38568;DHT22;24338;48.280;10.970;2023-05-31T00:51:33;12.10;99.90
38568;DHT22;24338;48.280;10.970;2023-05-31T00:54:02;12.10;99.90
38568;DHT22;24338;48.280;10.970;2023-05-31T00:56:29;12.10;99.90
38568;DHT22;24338;48.280;10.970;2023-05-31T00:58:57;12.00;99.90
38568;DHT22;24338;48.280;10.970;2023-05-31T01:01:25;12.00;99.90
38568;DHT22;24338;48.280;10.970;2023-05-31T01:03:53;12.00;99.90
38568;DHT22;24338;48.280;10.970;2023-05-31T01:06:22;11.90;99.90
38568;DHT22;24338;48.280;10.970;2023-05-31T01:08:51;11.90;99.90
38568;DHT22;24338;48.280;10.970;2023-05-31T01:16:43;11.80;99.90
38568;DHT22;24338;48.280;10.970;2023-05-31T01:19:22;11.80;99.90
38568;DHT22;24338;48.280;10.970;2023-05-31T01:22:25;11.80;99.90
38568;DHT22;24338;48.280;10.970;2023-05-31T01:27:22;11.70;99.90
38568;DHT22;24338;48.280;10.970;2023-05-31T01:29:49;11.70;99.90
38568;DHT22;24338;48.280;10.970;2023-05-31T01:32:19;11.70;99.90
38568;DHT22;24338;48.280;10.970;2023-05-31T01:34:47;11.60;99.90
38568;DHT22;24338;48.280;10.970;2023-05-31T01:37:15;11.60;99.90
38568;DHT22;24338;48.280;10.970;2023-05-31T01:39:43;11.60;99.90
38568;DHT22;24338;48.280;10.970;2023-05-31T01:42:10;11.60;99.90
38568;DHT22;24338;48.280;10.970;2023-05-31T01:44:38;11.50;99.90
38568;DHT22;24338;48.280;10.970;2023-05-31T01:47:08;11.50;99.90
38568;DHT22;24338;48.280;10.970;2023-05-31T01:49:37;11.40;99.90
38568;DHT22;24338;48.280;10.970;2023-05-31T01:52:07;11.40;99.90
38568;DHT22;24338;48.280;10.970;2023-05-31T01:54:35;11.40;99.90
38568;DHT22;24338;48.280;10.970;2023-05-31T01:57:04;11.30;99.90
38568;DHT22;24338;48.280;10.970;2023-05-31T01:59:34;11.30;99.90
38568;DHT22;24338;48.280;10.970;2023-05-31T02:02:03;11.30;99.90
38568;DHT22;24338;48.280;10.970;2023-05-31T02:04:31;11.20;99.90
38568;DHT22;24338;48.280;10.970;2023-05-31T02:06:58;11.20;99.90
38568;DHT22;24338;48.280;10.970;2023-05-31T02:09:26;11.10;99.90
38568;DHT22;24338;48.280;10.970;2023-05-31T02:11:53;11.10;99.90
38568;DHT22;24338;48.280;10.970;2023-05-31T02:14:21;11.10;99.90
38568;DHT22;24338;48.280;10.970;2023-05-31T02:16:48;11.10;99.90
38568;DHT22;24338;48.280;10.970;2023-05-31T02:19:15;11.00;99.90
38568;DHT22;24338;48.280;10.970;2023-05-31T02:21:42;10.90;99.90
38568;DHT22;24338;48.280;10.970;2023-05-31T02:24:09;10.90;99.90
38568;DHT22;24338;48.280;10.970;2023-05-31T02:26:36;10.80;99.90
38568;DHT22;24338;48.280;10.970;2023-05-31T02:29:03;10.80;99.90
38568;DHT22;24338;48.280;10.970;2023-05-31T02:31:30;10.70;99.90
38568;DHT22;24338;48.280;10.970;2023-05-31T02:33:57;10.70;99.90
38568;DHT22;24338;48.280;10.970;2023-05-31T02:36:24;10.60;99.90
38568;DHT22;24338;48.280;10.970;2023-05-31T02:38:55;10.60;99.90
38568;DHT22;24338;48.280;10.970;2023-05-31T02:41:22;10.50;99.90
38568;DHT22;24338;48.280;10.970;2023-05-31T02:43:49;10.50;99.90
38568;DHT22;24338;48.280;10.970;2023-05-31T02:46:16;10.50;99.90
38568;DHT22;24338;48.280;10.970;2023-05-31T02:48:43;10.40;99.90
38568;DHT22;24338;48.280;10.970;2023-05-31T02:51:10;10.40;99.90
38568;DHT22;24338;48.280;10.970;2023-05-31T02:53:37;10.30;99.90
38568;DHT22;24338;48.280;10.970;2023-05-31T02:56:04;10.30;99.90
38568;DHT22;24338;48.280;10.970;2023-05-31T02:58:32;10.20;99.90
38568;DHT22;24338;48.280;10.970;2023-05-31T03:00:59;10.20;99.90
38568;DHT22;24338;48.280;10.970;2023-05-31T03:03:26;10.20;99.90
38568;DHT22;24338;48.280;10.970;2023-05-31T03:05:54;10.10;99.90
38568;DHT22;24338;48.280;10.970;2023-05-31T03:08:21;10.10;99.90
38568;DHT22;24338;48.280;10.970;2023-05-31T03:10:48;10.10;99.90
38568;DHT22;24338;48.280;10.970;2023-05-31T03:13:15;10.10;99.90
38568;DHT22;24338;48.280;10.970;2023-05-31T03:15:42;10.00;99.90
38568;DHT22;24338;48.280;10.970;2023-05-31T03:18:09;9.90;99.90
38568;DHT22;24338;48.280;10.970;2023-05-31T03:20:36;9.90;99.90
38568;DHT22;24338;48.280;10.970;2023-05-31T03:23:03;9.90;99.90
38568;DHT22;24338;48.280;10.970;2023-05-31T03:25:30;9.90;99.90
38568;DHT22;24338;48.280;10.970;2023-05-31T03:27:57;9.90;99.90
38568;DHT22;24338;48.280;10.970;2023-05-31T03:30:25;9.90;99.90
38568;DHT22;24338;48.280;10.970;2023-05-31T03:32:51;9.80;99.90
38568;DHT22;24338;48.280;10.970;2023-05-31T03:35:18;9.80;99.90
38568;DHT22;24338;48.280;10.970;2023-05-31T03:37:45;9.80;99.90
38568;DHT22;24338;48.280;10.970;2023-05-31T03:40:12;9.80;99.90
38568;DHT22;24338;48.280;10.970;2023-05-31T03:42:39;9.80;99.90
38568;DHT22;24338;48.280;10.970;2023-05-31T03:45:07;9.90;99.90
38568;DHT22;24338;48.280;10.970;2023-05-31T03:47:34;9.90;99.90
38568;DHT22;24338;48.280;10.970;2023-05-31T03:50:04;9.90;99.90
38568;DHT22;24338;48.280;10.970;2023-05-31T03:52:32;9.90;99.90
38568;DHT22;24338;48.280;10.970;2023-05-31T03:54:59;10.00;99.90
38568;DHT22;24338;48.280;10.970;2023-05-31T03:57:27;10.10;99.90
38568;DHT22;24338;48.280;10.970;2023-05-31T03:59:54;10.10;99.90
38568;DHT22;24338;48.280;10.970;2023-05-31T04:02:21;10.10;99.90
38568;DHT22;24338;48.280;10.970;2023-05-31T04:04:48;10.20;99.90
38568;DHT22;24338;48.280;10.970;2023-05-31T04:07:15;10.20;99.90
38568;DHT22;24338;48.280;10.970;2023-05-31T04:09:42;10.30;99.90
38568;DHT22;24338;48.280;10.970;2023-05-31T04:12:09;10.30;99.90
38568;DHT22;24338;48.280;10.970;2023-05-31T04:14:36;10.30;99.90
38568;DHT22;24338;48.280;10.970;2023-05-31T04:17:04;10.40;99.90
38568;DHT22;24338;48.280;10.970;2023-05-31T04:19:31;10.50;99.90
38568;DHT22;24338;48.280;10.970;2023-05-31T04:21:58;10.50;99.90
38568;DHT22;24338;48.280;10.970;2023-05-31T04:24:25;10.60;99.90
38568;DHT22;24338;48.280;10.970;2023-05-31T04:26:52;10.60;99.90
38568;DHT22;24338;48.280;10.970;2023-05-31T04:29:20;10.70;99.90
38568;DHT22;24338;48.280;10.970;2023-05-31T04:31:48;10.80;99.90
38568;DHT22;24338;48.280;10.970;2023-05-31T04:34:18;10.80;99.90
38568;DHT22;24338;48.280;10.970;2023-05-31T04:36:46;10.90;99.90
38568;DHT22;24338;48.280;10.970;2023-05-31T04:39:18;10.90;99.90
38568;DHT22;24338;48.280;10.970;2023-05-31T04:41:50;11.00;99.90
38568;DHT22;24338;48.280;10.970;2023-05-31T04:44:17;11.00;99.90
38568;DHT22;24338;48.280;10.970;2023-05-31T04:46:45;11.00;99.90
38568;DHT22;24338;48.280;10.970;2023-05-31T04:49:13;11.10;99.90
38568;DHT22;24338;48.280;10.970;2023-05-31T04:51:40;11.10;99.90
38568;DHT22;24338;48.280;10.970;2023-05-31T04:54:07;11.20;99.90
38568;DHT22;24338;48.280;10.970;2023-05-31T04:56:34;11.40;99.90
38568;DHT22;24338;48.280;10.970;2023-05-31T04:59:01;11.50;99.90
38568;DHT22;24338;48.280;10.970;2023-05-31T05:01:28;11.60;99.90
38568;DHT22;24338;48.280;10.970;2023-05-31T05:03:55;11.70;99.90
38568;DHT22;24338;48.280;10.970;2023-05-31T05:06:22;11.80;99.90
38568;DHT22;24338;48.280;10.970;2023-05-31T05:08:49;11.90;99.90
38568;DHT22;24338;48.280;10.970;2023-05-31T05:11:16;12.00;99.90
38568;DHT22;24338;48.280;10.970;2023-05-31T05:13:43;12.10;99.90
38568;DHT22;24338;48.280;10.970;2023-05-31T05:16:10;12.10;99.90
38568;DHT22;24338;48.280;10.970;2023-05-31T05:18:37;12.20;99.90
38568;DHT22;24338;48.280;10.970;2023-05-31T05:21:04;12.30;99.90
38568;DHT22;24338;48.280;10.970;2023-05-31T05:23:31;12.30;99.90
38568;DHT22;24338;48.280;10.970;2023-05-31T05:25:59;12.40;99.90
38568;DHT22;24338;48.280;10.970;2023-05-31T05:28:30;12.50;99.90
38568;DHT22;24338;48.280;10.970;2023-05-31T05:30:57;12.60;99.90
38568;DHT22;24338;48.280;10.970;2023-05-31T05:33:25;12.60;99.90
38568;DHT22;24338;48.280;10.970;2023-05-31T05:35:53;12.70;99.90
38568;DHT22;24338;48.280;10.970;2023-05-31T05:38:20;12.80;99.90
38568;DHT22;24338;48.280;10.970;2023-05-31T05:40:47;12.80;99.90
38568;DHT22;24338;48.280;10.970;2023-05-31T05:43:14;13.00;99.90
38568;DHT22;24338;48.280;10.970;2023-05-31T05:45:41;13.00;99.90
38568;DHT22;24338;48.280;10.970;2023-05-31T05:48:08;13.10;99.90
38568;DHT22;24338;48.280;10.970;2023-05-31T05:50:35;13.10;99.90
38568;DHT22;24338;48.280;10.970;2023-05-31T05:53:02;13.20;99.90
38568;DHT22;24338;48.280;10.970;2023-05-31T05:55:30;13.30;99.90
38568;DHT22;24338;48.280;10.970;2023-05-31T05:57:57;13.30;99.90
38568;DHT22;24338;48.280;10.970;2023-05-31T06:00:24;13.40;99.90
38568;DHT22;24338;48.280;10.970;2023-05-31T06:02:51;13.40;99.90
38568;DHT22;24338;48.280;10.970;2023-05-31T06:05:18;13.50;99.90
38568;DHT22;24338;48.280;10.970;2023-05-31T06:07:53;13.60;99.90
38568;DHT22;24338;48.280;10.970;2023-05-31T06:10:20;13.70;99.90
38568;DHT22;24338;48.280;10.970;2023-05-31T06:12:47;13.70;99.90
38568;DHT22;24338;48.280;10.970;2023-05-31T06:15:14;13.70;99.90
38568;DHT22;24338;48.280;10.970;2023-05-31T06:17:42;13.80;99.90
38568;DHT22;24338;48.280;10.970;2023-05-31T06:20:10;13.90;99.90
38568;DHT22;24338;48.280;10.970;2023-05-31T06:22:37;14.00;99.90
38568;DHT22;24338;48.280;10.970;2023-05-31T06:25:04;14.10;99.90
38568;DHT22;24338;48.280;10.970;2023-05-31T06:27:31;14.20;99.90
38568;DHT22;24338;48.280;10.970;2023-05-31T06:29:58;14.30;99.90
38568;DHT22;24338;48.280;10.970;2023-05-31T06:32:26;14.30;99.90
38568;DHT22;24338;48.280;10.970;2023-05-31T06:34:53;14.40;99.90
38568;DHT22;24338;48.280;10.970;2023-05-31T06:37:21;14.50;99.90
38568;DHT22;24338;48.280;10.970;2023-05-31T06:39:51;14.70;99.70
38568;DHT22;24338;48.280;10.970;2023-05-31T06:42:17;14.70;99.90
38568;DHT22;24338;48.280;10.970;2023-05-31T06:44:45;14.80;99.40
38568;DHT22;24338;48.280;10.970;2023-05-31T06:47:22;14.90;99.90
38568;DHT22;24338;48.280;10.970;2023-05-31T06:49:49;15.00;98.20
38568;DHT22;24338;48.280;10.970;2023-05-31T06:52:16;15.10;99.60
38568;DHT22;24338;48.280;10.970;2023-05-31T06:54:43;15.20;99.60
38568;DHT22;24338;48.280;10.970;2023-05-31T06:57:11;15.30;97.90
38568;DHT22;24338;48.280;10.970;2023-05-31T06:59:38;15.30;97.70
38568;DHT22;24338;48.280;10.970;2023-05-31T07:02:06;15.40;97.70
38568;DHT22;24338;48.280;10.970;2023-05-31T07:04:33;15.50;97.40
38568;DHT22;24338;48.280;10.970;2023-05-31T07:07:00;15.50;98.10
38568;DHT22;24338;48.280;10.970;2023-05-31T07:09:27;15.60;97.70
38568;DHT22;24338;48.280;10.970;2023-05-31T07:11:54;15.70;97.40
38568;DHT22;24338;48.280;10.970;2023-05-31T07:14:21;15.70;96.40
38568;DHT22;24338;48.280;10.970;2023-05-31T07:16:48;15.80;96.00
38568;DHT22;24338;48.280;10.970;2023-05-31T07:19:15;15.80;97.30
38568;DHT22;24338;48.280;10.970;2023-05-31T07:21:42;15.90;96.10
38568;DHT22;24338;48.280;10.970;2023-05-31T07:24:09;16.00;96.00
38568;DHT22;24338;48.280;10.970;2023-05-31T07:26:36;16.00;95.80
38568;DHT22;24338;48.280;10.970;2023-05-31T07:29:03;16.10;96.10
38568;DHT22;24338;48.280;10.970;2023-05-31T07:31:30;16.20;96.40
38568;DHT22;24338;48.280;10.970;2023-05-31T07:33:57;16.20;95.00
38568;DHT22;24338;48.280;10.970;2023-05-31T07:36:24;16.30;94.50
38568;DHT22;24338;48.280;10.970;2023-05-31T07:38:51;16.30;94.40
38568;DHT22;24338;48.280;10.970;2023-05-31T07:41:21;16.30;93.50
38568;DHT22;24338;48.280;10.970;2023-05-31T07:43:48;16.40;95.00
38568;DHT22;24338;48.280;10.970;2023-05-31T07:46:15;16.50;94.80
38568;DHT22;24338;48.280;10.970;2023-05-31T07:48:42;16.60;94.70
38568;DHT22;24338;48.280;10.970;2023-05-31T07:51:09;16.60;93.00
38568;DHT22;24338;48.280;10.970;2023-05-31T07:53:36;16.60;93.40
38568;DHT22;24338;48.280;10.970;2023-05-31T07:56:03;16.60;92.70
38568;DHT22;24338;48.280;10.970;2023-05-31T07:58:30;16.70;94.20
38568;DHT22;24338;48.280;10.970;2023-05-31T08:00:57;16.80;94.00
38568;DHT22;24338;48.280;10.970;2023-05-31T08:03:24;16.90;93.10
38568;DHT22;24338;48.280;10.970;2023-05-31T08:05:51;17.00;94.80
38568;DHT22;24338;48.280;10.970;2023-05-31T08:08:20;17.20;93.10
38568;DHT22;24338;48.280;10.970;2023-05-31T08:10:48;17.20;93.40
38568;DHT22;24338;48.280;10.970;2023-05-31T08:13:14;17.30;93.20
38568;DHT22;24338;48.280;10.970;2023-05-31T08:15:41;17.50;92.60
38568;DHT22;24338;48.280;10.970;2023-05-31T08:18:08;17.60;93.10
38568;DHT22;24338;48.280;10.970;2023-05-31T08:20:35;17.60;91.80
38568;DHT22;24338;48.280;10.970;2023-05-31T08:23:02;17.60;92.10
38568;DHT22;24338;48.280;10.970;2023-05-31T08:25:29;17.80;92.30
38568;DHT22;24338;48.280;10.970;2023-05-31T08:27:56;18.10;92.30
38568;DHT22;24338;48.280;10.970;2023-05-31T08:30:23;18.20;90.40
38568;DHT22;24338;48.280;10.970;2023-05-31T08:32:50;18.30;90.40
38568;DHT22;24338;48.280;10.970;2023-05-31T08:35:17;18.40;90.70
38568;DHT22;24338;48.280;10.970;2023-05-31T08:37:43;18.60;91.10
38568;DHT22;24338;48.280;10.970;2023-05-31T08:40:14;18.80;88.80
38568;DHT22;24338;48.280;10.970;2023-05-31T08:42:51;19.00;90.00
38568;DHT22;24338;48.280;10.970;2023-05-31T08:45:21;19.00;87.90
38568;DHT22;24338;48.280;10.970;2023-05-31T08:48:02;19.30;89.10
38568;DHT22;24338;48.280;10.970;2023-05-31T08:50:31;19.40;85.00
38568;DHT22;24338;48.280;10.970;2023-05-31T08:52:59;19.50;87.40
38568;DHT22;24338;48.280;10.970;2023-05-31T08:55:26;19.60;85.40
38568;DHT22;24338;48.280;10.970;2023-05-31T08:57:54;19.90;85.60
38568;DHT22;24338;48.280;10.970;2023-05-31T09:00:22;20.10;83.50
38568;DHT22;24338;48.280;10.970;2023-05-31T09:02:50;20.30;81.70
38568;DHT22;24338;48.280;10.970;2023-05-31T09:05:18;20.40;83.60
38568;DHT22;24338;48.280;10.970;2023-05-31T09:07:45;20.60;81.50
38568;DHT22;24338;48.280;10.970;2023-05-31T09:10:14;20.60;78.00
38568;DHT22;24338;48.280;10.970;2023-05-31T09:12:43;20.60;81.50
38568;DHT22;24338;48.280;10.970;2023-05-31T09:15:13;20.70;78.40
38568;DHT22;24338;48.280;10.970;2023-05-31T09:17:43;20.90;79.00
38568;DHT22;24338;48.280;10.970;2023-05-31T09:20:11;20.90;78.00
38568;DHT22;24338;48.280;10.970;2023-05-31T09:22:38;21.00;76.30
38568;DHT22;24338;48.280;10.970;2023-05-31T09:25:05;20.80;73.50
38568;DHT22;24338;48.280;10.970;2023-05-31T09:27:38;21.10;74.80
38568;DHT22;24338;48.280;10.970;2023-05-31T09:30:10;21.50;78.30
38568;DHT22;24338;48.280;10.970;2023-05-31T09:32:37;21.60;72.30
38568;DHT22;24338;48.280;10.970;2023-05-31T09:35:15;21.60;72.10
38568;DHT22;24338;48.280;10.970;2023-05-31T09:37:48;21.80;71.10
38568;DHT22;24338;48.280;10.970;2023-05-31T09:40:23;21.70;73.00
38568;DHT22;24338;48.280;10.970;2023-05-31T09:42:52;21.80;69.40
38568;DHT22;24338;48.280;10.970;2023-05-31T09:45:21;21.60;70.30
38568;DHT22;24338;48.280;10.970;2023-05-31T09:47:48;21.90;71.40
38568;DHT22;24338;48.280;10.970;2023-05-31T09:50:21;21.90;68.90
38568;DHT22;24338;48.280;10.970;2023-05-31T09:52:58;22.10;63.90
38568;DHT22;24338;48.280;10.970;2023-05-31T09:55:38;22.10;65.00
38568;DHT22;24338;48.280;10.970;2023-05-31T09:58:05;22.30;68.40
38568;DHT22;24338;48.280;10.970;2023-05-31T10:00:33;22.50;64.80
38568;DHT22;24338;48.280;10.970;2023-05-31T10:03:00;22.20;64.50
38568;DHT22;24338;48.280;10.970;2023-05-31T10:05:28;22.20;62.90
38568;DHT22;24338;48.280;10.970;2023-05-31T10:07:55;22.40;60.00
38568;DHT22;24338;48.280;10.970;2023-05-31T10:10:22;22.40;62.40
38568;DHT22;24338;48.280;10.970;2023-05-31T10:13:01;22.40;60.40
38568;DHT22;24338;48.280;10.970;2023-05-31T10:15:31;22.40;61.90
38568;DHT22;24338;48.280;10.970;2023-05-31T10:18:15;22.60;62.90
38568;DHT22;24338;48.280;10.970;2023-05-31T10:20:52;22.60;59.60
38568;DHT22;24338;48.280;10.970;2023-05-31T10:23:22;23.10;60.20
38568;DHT22;24338;48.280;10.970;2023-05-31T10:28:47;23.50;59.10
38568;DHT22;24338;48.280;10.970;2023-05-31T10:31:19;23.20;58.40
38568;DHT22;24338;48.280;10.970;2023-05-31T10:33:53;23.40;59.90
38568;DHT22;24338;48.280;10.970;2023-05-31T10:36:20;23.70;63.20
38568;DHT22;24338;48.280;10.970;2023-05-31T10:38:59;23.80;60.10
38568;DHT22;24338;48.280;10.970;2023-05-31T10:41:33;23.50;60.30
38568;DHT22;24338;48.280;10.970;2023-05-31T10:44:07;23.70;61.60
38568;DHT22;24338;48.280;10.970;2023-05-31T10:46:38;23.70;57.40
38568;DHT22;24338;48.280;10.970;2023-05-31T10:49:09;24.10;58.30
38568;DHT22;24338;48.280;10.970;2023-05-31T10:51:46;24.20;60.00
38568;DHT22;24338;48.280;10.970;2023-05-31T10:54:36;24.70;58.30
38568;DHT22;24338;48.280;10.970;2023-05-31T10:57:05;24.80;59.00
38568;DHT22;24338;48.280;10.970;2023-05-31T10:59:40;24.20;56.80
38568;DHT22;24338;48.280;10.970;2023-05-31T11:02:10;24.40;58.10
38568;DHT22;24338;48.280;10.970;2023-05-31T11:04:37;24.40;56.10
38568;DHT22;24338;48.280;10.970;2023-05-31T11:07:15;24.70;58.80
38568;DHT22;24338;48.280;10.970;2023-05-31T11:09:55;24.60;56.60
38568;DHT22;24338;48.280;10.970;2023-05-31T11:15:04;24.50;57.90
38568;DHT22;24338;48.280;10.970;2023-05-31T11:17:38;24.50;57.40
38568;DHT22;24338;48.280;10.970;2023-05-31T11:20:07;24.50;56.60
38568;DHT22;24338;48.280;10.970;2023-05-31T11:22:41;24.60;55.80
38568;DHT22;24338;48.280;10.970;2023-05-31T11:25:08;24.80;55.80
38568;DHT22;24338;48.280;10.970;2023-05-31T11:27:38;24.80;56.70
38568;DHT22;24338;48.280;10.970;2023-05-31T11:30:10;25.00;56.40
38568;DHT22;24338;48.280;10.970;2023-05-31T11:35:07;25.20;53.50
38568;DHT22;24338;48.280;10.970;2023-05-31T11:37:37;25.10;55.90
38568;DHT22;24338;48.280;10.970;2023-05-31T11:40:05;25.10;57.30
38568;DHT22;24338;48.280;10.970;2023-05-31T11:42:36;25.10;55.30
38568;DHT22;24338;48.280;10.970;2023-05-31T11:45:15;25.20;55.10
38568;DHT22;24338;48.280;10.970;2023-05-31T11:50:17;25.40;56.80
38568;DHT22;24338;48.280;10.970;2023-05-31T11:52:44;25.40;53.30
38568;DHT22;24338;48.280;10.970;2023-05-31T11:55:15;25.50;54.00
38568;DHT22;24338;48.280;10.970;2023-05-31T11:57:45;25.60;53.70
38568;DHT22;24338;48.280;10.970;2023-05-31T12:00:13;25.60;52.80
38568;DHT22;24338;48.280;10.970;2023-05-31T12:02:43;25.70;54.20
38568;DHT22;24338;48.280;10.970;2023-05-31T12:05:15;25.80;53.70
38568;DHT22;24338;48.280;10.970;2023-05-31T12:07:43;25.90;54.80
38568;DHT22;24338;48.280;10.970;2023-05-31T12:10:10;26.10;52.70
38568;DHT22;24338;48.280;10.970;2023-05-31T12:12:41;26.20;53.20
38568;DHT22;24338;48.280;10.970;2023-05-31T12:15:08;26.20;51.10
38568;DHT22;24338;48.280;10.970;2023-05-31T12:17:39;25.70;51.00
38568;DHT22;24338;48.280;10.970;2023-05-31T12:20:06;26.00;52.50
38568;DHT22;24338;48.280;10.970;2023-05-31T12:22:34;26.10;52.00
38568;DHT22;24338;48.280;10.970;2023-05-31T12:25:02;26.00;51.20
38568;DHT22;24338;48.280;10.970;2023-05-31T12:27:29;26.40;51.00
38568;DHT22;24338;48.280;10.970;2023-05-31T12:30:16;25.90;52.90
38568;DHT22;24338;48.280;10.970;2023-05-31T12:32:45;26.20;53.00
38568;DHT22;24338;48.280;10.970;2023-05-31T12:35:12;26.10;50.10
38568;DHT22;24338;48.280;10.970;2023-05-31T12:37:40;26.10;51.70
38568;DHT22;24338;48.280;10.970;2023-05-31T12:40:11;26.10;49.20
38568;DHT22;24338;48.280;10.970;2023-05-31T12:42:38;26.20;49.90
38568;DHT22;24338;48.280;10.970;2023-05-31T12:45:07;26.30;51.20
38568;DHT22;24338;48.280;10.970;2023-05-31T12:47:35;26.10;50.30
38568;DHT22;24338;48.280;10.970;2023-05-31T12:50:07;26.20;51.70
38568;DHT22;24338;48.280;10.970;2023-05-31T12:52:36;26.10;49.10
38568;DHT22;24338;48.280;10.970;2023-05-31T12:55:05;26.30;50.70
38568;DHT22;24338;48.280;10.970;2023-05-31T12:57:33;26.50;50.00
38568;DHT22;24338;48.280;10.970;2023-05-31T13:00:01;26.90;51.90
38568;DHT22;24338;48.280;10.970;2023-05-31T13:02:30;27.10;49.10
38568;DHT22;24338;48.280;10.970;2023-05-31T13:04:57;26.70;48.20
38568;DHT22;24338;48.280;10.970;2023-05-31T13:07:24;26.70;50.10
38568;DHT22;24338;48.280;10.970;2023-05-31T13:09:51;27.10;51.10
38568;DHT22;24338;48.280;10.970;2023-05-31T13:12:18;27.20;51.10
38568;DHT22;24338;48.280;10.970;2023-05-31T13:14:47;27.50;51.00
38568;DHT22;24338;48.280;10.970;2023-05-31T13:17:14;27.10;50.40
38568;DHT22;24338;48.280;10.970;2023-05-31T13:19:44;27.20;51.10
38568;DHT22;24338;48.280;10.970;2023-05-31T13:22:31;27.20;50.70
38568;DHT22;24338;48.280;10.970;2023-05-31T13:24:58;27.30;51.80
38568;DHT22;24338;48.280;10.970;2023-05-31T13:27:25;26.90;50.90
38568;DHT22;24338;48.280;10.970;2023-05-31T13:29:52;27.20;50.90
38568;DHT22;24338;48.280;10.970;2023-05-31T13:32:19;27.20;48.50
38568;DHT22;24338;48.280;10.970;2023-05-31T13:34:46;27.30;49.30
38568;DHT22;24338;48.280;10.970;2023-05-31T13:37:13;27.20;49.30
38568;DHT22;24338;48.280;10.970;2023-05-31T13:39:40;27.30;48.50
38568;DHT22;24338;48.280;10.970;2023-05-31T13:42:07;27.60;50.50
38568;DHT22;24338;48.280;10.970;2023-05-31T13:44:34;27.60;49.60
38568;DHT22;24338;48.280;10.970;2023-05-31T13:47:01;27.60;52.10
38568;DHT22;24338;48.280;10.970;2023-05-31T13:49:28;27.60;51.70
38568;DHT22;24338;48.280;10.970;2023-05-31T13:51:55;27.10;51.60
38568;DHT22;24338;48.280;10.970;2023-05-31T13:54:22;27.20;53.00
38568;DHT22;24338;48.280;10.970;2023-05-31T13:56:49;27.40;52.40
38568;DHT22;24338;48.280;10.970;2023-05-31T13:59:16;27.50;50.80
38568;DHT22;24338;48.280;10.970;2023-05-31T14:01:43;27.60;50.90
38568;DHT22;24338;48.280;10.970;2023-05-31T14:04:10;27.40;51.40
38568;DHT22;24338;48.280;10.970;2023-05-31T14:06:38;27.40;51.90
38568;DHT22;24338;48.280;10.970;2023-05-31T14:09:05;27.50;51.50
38568;DHT22;24338;48.280;10.970;2023-05-31T14:11:32;27.50;50.90
38568;DHT22;24338;48.280;10.970;2023-05-31T14:13:59;27.70;51.60
38568;DHT22;24338;48.280;10.970;2023-05-31T14:16:26;27.70;50.30
38568;DHT22;24338;48.280;10.970;2023-05-31T14:18:55;27.80;51.40
38568;DHT22;24338;48.280;10.970;2023-05-31T14:21:22;27.90;52.30
38568;DHT22;24338;48.280;10.970;2023-05-31T14:23:49;27.60;50.50
38568;DHT22;24338;48.280;10.970;2023-05-31T14:26:16;27.10;51.60
38568;DHT22;24338;48.280;10.970;2023-05-31T14:28:43;27.00;52.60
38568;DHT22;24338;48.280;10.970;2023-05-31T14:31:09;26.90;53.50
38568;DHT22;24338;48.280;10.970;2023-05-31T14:33:39;27.00;52.80
38568;DHT22;24338;48.280;10.970;2023-05-31T14:36:07;26.60;52.20
38568;DHT22;24338;48.280;10.970;2023-05-31T14:38:34;26.50;53.20
38568;DHT22;24338;48.280;10.970;2023-05-31T14:41:02;26.50;56.00
38568;DHT22;24338;48.280;10.970;2023-05-31T14:43:29;26.60;54.10
38568;DHT22;24338;48.280;10.970;2023-05-31T14:45:56;26.70;53.90
38568;DHT22;24338;48.280;10.970;2023-05-31T14:48:23;26.50;53.70
38568;DHT22;24338;48.280;10.970;2023-05-31T14:50:50;26.50;53.90
38568;DHT22;24338;48.280;10.970;2023-05-31T14:53:18;26.50;54.40
38568;DHT22;24338;48.280;10.970;2023-05-31T14:55:45;26.30;54.70
38568;DHT22;24338;48.280;10.970;2023-05-31T14:58:11;26.50;55.80
38568;DHT22;24338;48.280;10.970;2023-05-31T15:00:39;26.60;54.70
38568;DHT22;24338;48.280;10.970;2023-05-31T15:03:06;26.50;55.10
38568;DHT22;24338;48.280;10.970;2023-05-31T15:05:33;26.30;54.50
38568;DHT22;24338;48.280;10.970;2023-05-31T15:08:00;26.40;54.00
38568;DHT22;24338;48.280;10.970;2023-05-31T15:10:27;26.70;54.30
38568;DHT22;24338;48.280;10.970;2023-05-31T15:12:54;26.60;52.80
38568;DHT22;24338;48.280;10.970;2023-05-31T15:15:21;26.80;53.50
38568;DHT22;24338;48.280;10.970;2023-05-31T15:17:48;26.50;52.20
38568;DHT22;24338;48.280;10.970;2023-05-31T15:20:15;26.30;52.50
38568;DHT22;24338;48.280;10.970;2023-05-31T15:22:42;26.10;51.90
38568;DHT22;24338;48.280;10.970;2023-05-31T15:25:09;26.00;52.90
38568;DHT22;24338;48.280;10.970;2023-05-31T15:27:36;25.80;52.50
38568;DHT22;24338;48.280;10.970;2023-05-31T15:30:03;26.00;54.40
38568;DHT22;24338;48.280;10.970;2023-05-31T15:32:31;25.90;53.10
38568;DHT22;24338;48.280;10.970;2023-05-31T15:34:58;25.70;52.80
38568;DHT22;24338;48.280;10.970;2023-05-31T15:37:25;25.60;52.80
38568;DHT22;24338;48.280;10.970;2023-05-31T15:39:51;25.70;54.00
38568;DHT22;24338;48.280;10.970;2023-05-31T15:42:18;25.50;54.10
38568;DHT22;24338;48.280;10.970;2023-05-31T15:44:46;25.60;55.30